createdAt,value
2023-05-10T00:00:00.251Z,15.24
2023-05-10T00:01:00.487Z,15.21
2023-05-10T00:02:00.874Z,15.19
2023-05-10T00:03:01.300Z,15.15
2023-05-10T00:04:01.550Z,15.11
2023-05-10T00:05:01.869Z,15.09
2023-05-10T00:06:02.231Z,15.07
2023-05-10T00:07:02.608Z,15.07
2023-05-10T00:08:02.969Z,15.06
2023-05-10T00:09:03.338Z,15.06
2023-05-10T00:10:03.722Z,15.02
2023-05-10T00:11:04.045Z,14.99
2023-05-10T00:12:04.415Z,14.96
2023-05-10T00:13:04.749Z,14.94
2023-05-10T00:14:05.102Z,14.92
2023-05-10T00:15:05.473Z,14.96
2023-05-10T00:16:05.838Z,14.94
2023-05-10T00:17:06.217Z,14.91
2023-05-10T00:18:06.618Z,14.89
2023-05-10T00:19:06.900Z,14.88
2023-05-10T00:20:07.267Z,14.86
2023-05-10T00:21:07.632Z,14.85
2023-05-10T00:22:08.016Z,14.85
2023-05-10T00:23:08.345Z,14.81
2023-05-10T00:24:08.714Z,14.78
2023-05-10T00:25:09.074Z,14.72
2023-05-10T00:26:09.446Z,14.69
2023-05-10T00:27:09.833Z,14.68
2023-05-10T00:28:10.142Z,14.69
2023-05-10T00:29:10.508Z,14.69
2023-05-10T00:30:10.871Z,14.68
2023-05-10T00:31:11.221Z,14.66
2023-05-10T00:32:11.663Z,14.63
2023-05-10T00:33:11.959Z,14.59
2023-05-10T00:34:12.317Z,14.54
2023-05-10T00:35:12.681Z,14.51
2023-05-10T00:36:13.035Z,14.50
2023-05-10T00:37:13.400Z,14.48
2023-05-10T00:38:13.749Z,14.50
2023-05-10T00:39:14.108Z,14.48
2023-05-10T00:40:14.777Z,14.45
2023-05-10T00:41:14.859Z,14.43
2023-05-10T00:42:15.239Z,14.36
2023-05-10T00:43:15.576Z,14.35
2023-05-10T00:44:15.908Z,14.33
2023-05-10T00:45:16.266Z,14.32
2023-05-10T00:46:16.688Z,14.32
2023-05-10T00:47:17.000Z,14.32
2023-05-10T00:48:17.316Z,14.35
2023-05-10T00:49:17.677Z,14.32
2023-05-10T00:50:18.181Z,14.30
2023-05-10T00:51:18.407Z,14.29
2023-05-10T00:52:18.826Z,14.26
2023-05-10T00:53:19.149Z,14.23
2023-05-10T00:54:19.504Z,14.22
2023-05-10T00:55:19.861Z,14.20
2023-05-10T00:56:20.236Z,14.18
2023-05-10T00:57:20.637Z,14.15
2023-05-10T00:58:20.959Z,14.11
2023-05-10T00:59:21.362Z,14.10
2023-05-10T01:00:21.642Z,14.11
2023-05-10T01:01:22.028Z,14.11
2023-05-10T01:02:22.519Z,14.12
2023-05-10T01:03:22.726Z,14.11
2023-05-10T01:04:23.068Z,14.10
2023-05-10T01:05:23.504Z,14.04
2023-05-10T01:06:23.768Z,14.03
2023-05-10T01:07:24.154Z,14.05
2023-05-10T01:08:24.482Z,14.03
2023-05-10T01:09:24.835Z,14.03
2023-05-10T01:10:25.192Z,14.03
2023-05-10T01:11:25.556Z,14.00
2023-05-10T01:12:26.055Z,13.96
2023-05-10T01:13:26.415Z,13.97
2023-05-10T01:14:26.630Z,13.95
2023-05-10T01:15:26.989Z,13.93
2023-05-10T01:16:27.460Z,13.87
2023-05-10T01:17:27.790Z,13.85
2023-05-10T01:18:28.080Z,13.85
2023-05-10T01:19:28.390Z,13.83
2023-05-10T01:20:28.739Z,13.78
2023-05-10T01:21:29.139Z,13.75
2023-05-10T01:22:29.481Z,13.71
2023-05-10T01:23:29.810Z,13.68
2023-05-10T01:24:30.173Z,13.67
2023-05-10T01:25:30.543Z,13.71
2023-05-10T01:26:30.923Z,13.74
2023-05-10T01:27:31.283Z,13.74
2023-05-10T01:28:31.637Z,13.71
2023-05-10T01:29:31.995Z,13.72
2023-05-10T01:30:32.380Z,13.70
2023-05-10T01:31:32.726Z,13.65
2023-05-10T01:32:33.107Z,13.65
2023-05-10T01:33:33.462Z,13.62
2023-05-10T01:34:33.840Z,13.60
2023-05-10T01:35:34.192Z,13.57
2023-05-10T01:36:34.543Z,13.60
2023-05-10T01:37:34.960Z,13.59
2023-05-10T01:38:35.255Z,13.60
2023-05-10T01:39:35.618Z,13.60
2023-05-10T01:40:35.993Z,13.57
2023-05-10T01:41:36.347Z,13.56
2023-05-10T01:42:36.908Z,13.53
2023-05-10T01:43:37.070Z,13.50
2023-05-10T01:44:37.437Z,13.46
2023-05-10T01:45:37.856Z,13.50
2023-05-10T01:46:38.237Z,13.53
2023-05-10T01:47:38.578Z,13.53
2023-05-10T01:48:38.859Z,13.52
2023-05-10T01:49:39.240Z,13.50
2023-05-10T01:50:39.586Z,13.46
2023-05-10T01:51:39.948Z,13.41
2023-05-10T01:52:40.395Z,13.47
2023-05-10T01:53:40.673Z,13.49
2023-05-10T01:54:41.031Z,13.53
2023-05-10T01:55:41.409Z,13.52
2023-05-10T01:56:41.786Z,13.49
2023-05-10T01:57:42.130Z,13.47
2023-05-10T01:58:42.450Z,13.44
2023-05-10T01:59:42.848Z,13.42
2023-05-10T02:00:43.249Z,13.38
2023-05-10T02:01:43.568Z,13.33
2023-05-10T02:02:43.973Z,13.30
2023-05-10T02:03:44.303Z,13.27
2023-05-10T02:04:44.664Z,13.22
2023-05-10T02:05:45.003Z,13.25
2023-05-10T02:06:45.370Z,13.23
2023-05-10T02:07:45.711Z,13.20
2023-05-10T02:08:46.031Z,13.19
2023-05-10T02:09:46.401Z,13.16
2023-05-10T02:10:46.746Z,13.15
2023-05-10T02:11:47.111Z,13.13
2023-05-10T02:12:47.537Z,13.13
2023-05-10T02:13:47.812Z,13.12
2023-05-10T02:14:48.184Z,13.11
2023-05-10T02:15:48.595Z,13.08
2023-05-10T02:16:48.987Z,13.04
2023-05-10T02:17:49.283Z,13.05
2023-05-10T02:18:49.605Z,13.05
2023-05-10T02:19:49.943Z,13.05
2023-05-10T02:20:50.318Z,13.05
2023-05-10T02:21:50.696Z,13.04
2023-05-10T02:22:51.047Z,13.05
2023-05-10T02:23:51.376Z,13.04
2023-05-10T02:24:51.738Z,13.05
2023-05-10T02:25:52.098Z,13.11
2023-05-10T02:26:52.468Z,13.12
2023-05-10T02:27:52.851Z,13.12
2023-05-10T02:28:53.162Z,13.16
2023-05-10T02:29:53.517Z,13.13
2023-05-10T02:30:53.878Z,13.13
2023-05-10T02:31:54.318Z,13.09
2023-05-10T02:32:54.728Z,13.11
2023-05-10T02:33:54.969Z,13.12
2023-05-10T02:34:55.384Z,13.12
2023-05-10T02:35:55.679Z,13.12
2023-05-10T02:36:56.027Z,13.12
2023-05-10T02:37:56.387Z,13.11
2023-05-10T02:38:56.738Z,13.11
2023-05-10T02:39:57.089Z,13.12
2023-05-10T02:40:57.473Z,13.09
2023-05-10T02:41:57.841Z,13.11
2023-05-10T02:42:58.262Z,13.11
2023-05-10T02:43:58.321Z,13.11
2023-05-10T02:44:58.597Z,13.11
2023-05-10T02:45:58.903Z,13.08
2023-05-10T02:46:59.326Z,13.11
2023-05-10T02:47:59.807Z,13.12
2023-05-10T02:49:00.128Z,13.13
2023-05-10T02:50:00.347Z,13.13
2023-05-10T02:51:00.725Z,13.12
2023-05-10T02:52:01.013Z,13.12
2023-05-10T02:53:01.308Z,13.11
2023-05-10T02:54:01.613Z,13.09
2023-05-10T02:55:01.745Z,13.08
2023-05-10T02:56:01.917Z,13.13
2023-05-10T02:57:02.090Z,13.11
2023-05-10T02:58:02.388Z,13.08
2023-05-10T02:59:02.655Z,13.05
2023-05-10T03:00:02.975Z,13.08
2023-05-10T03:01:03.153Z,13.05
2023-05-10T03:02:03.267Z,13.01
2023-05-10T03:03:03.538Z,12.98
2023-05-10T03:04:03.736Z,12.97
2023-05-10T03:05:03.947Z,12.95
2023-05-10T03:06:04.197Z,12.94
2023-05-10T03:07:04.391Z,12.91
2023-05-10T03:08:04.553Z,12.91
2023-05-10T03:09:04.810Z,12.93
2023-05-10T03:10:05.089Z,12.93
2023-05-10T03:11:05.391Z,12.93
2023-05-10T03:12:05.676Z,12.91
2023-05-10T03:13:06.023Z,12.90
2023-05-10T03:14:06.274Z,12.87
2023-05-10T03:15:06.576Z,12.85
2023-05-10T03:16:06.904Z,12.85
2023-05-10T03:17:07.020Z,12.86
2023-05-10T03:18:07.219Z,12.85
2023-05-10T03:19:07.336Z,12.80
2023-05-10T03:20:07.652Z,12.85
2023-05-10T03:21:07.790Z,12.83
2023-05-10T03:22:08.073Z,12.90
2023-05-10T03:23:08.259Z,12.91
2023-05-10T03:24:08.428Z,12.93
2023-05-10T03:25:08.593Z,12.97
2023-05-10T03:26:08.778Z,12.94
2023-05-10T03:27:08.991Z,12.93
2023-05-10T03:28:09.140Z,12.91
2023-05-10T03:29:09.313Z,12.90
2023-05-10T03:30:09.491Z,12.87
2023-05-10T03:31:09.718Z,12.86
2023-05-10T03:32:09.993Z,12.85
2023-05-10T03:33:10.427Z,12.82
2023-05-10T03:34:10.446Z,12.80
2023-05-10T03:35:10.604Z,12.78
2023-05-10T03:36:10.946Z,12.78
2023-05-10T03:37:11.119Z,12.76
2023-05-10T03:38:11.312Z,12.78
2023-05-10T03:39:11.454Z,12.80
2023-05-10T03:40:11.756Z,12.78
2023-05-10T03:41:12.060Z,12.76
2023-05-10T03:42:12.205Z,12.73
2023-05-10T03:43:12.527Z,12.76
2023-05-10T03:44:12.585Z,12.76
2023-05-10T03:45:12.872Z,12.78
2023-05-10T03:46:13.209Z,12.76
2023-05-10T03:47:13.469Z,12.79
2023-05-10T03:48:13.835Z,12.78
2023-05-10T03:49:13.934Z,12.78
2023-05-10T03:50:14.235Z,12.79
2023-05-10T03:51:14.436Z,12.76
2023-05-10T03:52:14.605Z,12.73
2023-05-10T03:53:14.819Z,12.73
2023-05-10T03:54:14.983Z,12.70
2023-05-10T03:55:15.158Z,12.72
2023-05-10T03:56:15.354Z,12.70
2023-05-10T03:57:15.638Z,12.68
2023-05-10T03:58:15.895Z,12.70
2023-05-10T03:59:16.003Z,12.70
2023-05-10T04:00:16.425Z,12.68
2023-05-10T04:01:16.358Z,12.70
2023-05-10T04:02:16.642Z,12.70
2023-05-10T04:03:16.902Z,12.72
2023-05-10T04:04:17.131Z,12.73
2023-05-10T04:05:17.322Z,12.75
2023-05-10T04:06:17.595Z,12.75
2023-05-10T04:07:17.673Z,12.76
2023-05-10T04:08:17.873Z,12.76
2023-05-10T04:09:18.106Z,12.78
2023-05-10T04:10:18.476Z,12.79
2023-05-10T04:11:18.406Z,12.79
2023-05-10T04:12:18.583Z,12.78
2023-05-10T04:13:18.811Z,12.80
2023-05-10T04:14:18.956Z,12.83
2023-05-10T04:15:19.137Z,12.82
2023-05-10T04:16:19.367Z,12.85
2023-05-10T04:17:19.516Z,12.85
2023-05-10T04:18:19.699Z,12.87
2023-05-10T04:19:19.924Z,12.90
2023-05-10T04:20:20.100Z,12.87
2023-05-10T04:21:20.263Z,12.91
2023-05-10T04:22:20.544Z,12.93
2023-05-10T04:23:20.689Z,12.93
2023-05-10T04:24:20.816Z,12.93
2023-05-10T04:25:21.006Z,12.86
2023-05-10T04:26:21.184Z,12.91
2023-05-10T04:27:21.372Z,12.94
2023-05-10T04:28:21.591Z,12.95
2023-05-10T04:29:21.739Z,12.94
2023-05-10T04:30:21.926Z,12.95
2023-05-10T04:31:22.206Z,12.95
2023-05-10T04:32:22.311Z,13.00
2023-05-10T04:33:22.515Z,13.03
2023-05-10T04:34:22.672Z,13.08
2023-05-10T04:35:22.824Z,13.13
2023-05-10T04:36:22.999Z,13.27
2023-05-10T04:37:23.184Z,13.28
2023-05-10T04:38:23.396Z,13.31
2023-05-10T04:39:23.558Z,13.38
2023-05-10T04:40:23.772Z,13.39
2023-05-10T04:41:23.938Z,13.31
2023-05-10T04:42:24.129Z,13.31
2023-05-10T04:43:24.341Z,13.33
2023-05-10T04:44:24.567Z,13.37
2023-05-10T04:45:24.676Z,13.41
2023-05-10T04:46:24.885Z,13.46
2023-05-10T04:47:25.140Z,13.56
2023-05-10T04:48:25.259Z,13.50
2023-05-10T04:49:25.416Z,13.54
2023-05-10T04:50:25.604Z,13.54
2023-05-10T04:51:25.798Z,13.52
2023-05-10T04:52:25.984Z,13.56
2023-05-10T04:53:26.203Z,13.68
2023-05-10T04:54:26.351Z,13.77
2023-05-10T04:55:26.535Z,13.78
2023-05-10T04:56:26.775Z,13.75
2023-05-10T04:57:26.924Z,13.83
2023-05-10T04:58:27.152Z,13.81
2023-05-10T04:59:27.351Z,13.90
2023-05-10T05:00:27.509Z,13.90
2023-05-10T05:01:27.862Z,13.95
2023-05-10T05:02:27.969Z,13.95
2023-05-10T05:03:28.136Z,13.78
2023-05-10T05:04:28.266Z,13.71
2023-05-10T05:05:28.457Z,13.71
2023-05-10T05:06:28.604Z,13.74
2023-05-10T05:07:28.808Z,13.74
2023-05-10T05:08:28.975Z,13.71
2023-05-10T05:09:29.137Z,13.75
2023-05-10T05:10:29.351Z,13.74
2023-05-10T05:11:29.521Z,13.75
2023-05-10T05:12:29.672Z,13.71
2023-05-10T05:13:29.898Z,13.74
2023-05-10T05:14:30.090Z,13.78
2023-05-10T05:15:30.204Z,13.79
2023-05-10T05:16:30.450Z,13.74
2023-05-10T05:17:30.577Z,13.60
2023-05-10T05:18:30.763Z,13.59
2023-05-10T05:19:30.916Z,13.60
2023-05-10T05:20:31.149Z,13.62
2023-05-10T05:21:31.311Z,13.63
2023-05-10T05:22:31.482Z,13.65
2023-05-10T05:23:31.762Z,13.67
2023-05-10T05:24:31.863Z,13.72
2023-05-10T05:25:32.095Z,13.72
2023-05-10T05:26:32.224Z,13.72
2023-05-10T05:27:32.435Z,13.70
2023-05-10T05:28:32.617Z,13.77
2023-05-10T05:29:32.773Z,13.86
2023-05-10T05:30:32.956Z,13.89
2023-05-10T05:31:33.196Z,13.89
2023-05-10T05:32:33.354Z,13.92
2023-05-10T05:33:33.556Z,13.87
2023-05-10T05:34:33.708Z,13.81
2023-05-10T05:35:33.900Z,13.86
2023-05-10T05:36:35.842Z,13.83
2023-05-10T05:37:34.301Z,13.85
2023-05-10T05:38:34.527Z,13.85
2023-05-10T05:39:34.675Z,13.86
2023-05-10T05:40:34.862Z,13.89
2023-05-10T05:41:35.036Z,13.90
2023-05-10T05:42:35.224Z,13.93
2023-05-10T05:43:38.059Z,13.97
2023-05-10T05:44:35.608Z,13.92
2023-05-10T05:45:35.778Z,13.96
2023-05-10T05:46:35.948Z,14.00
2023-05-10T05:47:36.179Z,14.04
2023-05-10T05:48:36.341Z,14.00
2023-05-10T05:49:36.505Z,13.99
2023-05-10T05:50:36.708Z,14.03
2023-05-10T05:51:36.887Z,14.04
2023-05-10T05:52:37.114Z,14.08
2023-05-10T05:53:37.299Z,14.08
2023-05-10T05:54:37.465Z,14.10
2023-05-10T05:55:37.644Z,14.10
2023-05-10T05:56:37.808Z,14.05
2023-05-10T05:57:38.005Z,14.10
2023-05-10T05:58:38.232Z,14.15
2023-05-10T05:59:38.382Z,14.20
2023-05-10T06:00:38.540Z,14.26
2023-05-10T06:01:38.688Z,14.26
2023-05-10T06:02:38.968Z,14.30
2023-05-10T06:03:39.154Z,14.30
2023-05-10T06:04:39.241Z,14.33
2023-05-10T06:05:39.439Z,14.35
2023-05-10T06:06:39.688Z,14.37
2023-05-10T06:07:39.808Z,14.40
2023-05-10T06:08:40.314Z,14.43
2023-05-10T06:09:40.178Z,14.40
2023-05-10T06:10:40.376Z,14.41
2023-05-10T06:11:40.544Z,14.44
2023-05-10T06:12:40.729Z,14.47
2023-05-10T06:13:40.928Z,14.54
2023-05-10T06:14:41.119Z,14.58
2023-05-10T06:15:41.257Z,14.54
2023-05-10T06:16:41.496Z,14.54
2023-05-10T06:17:41.654Z,14.54
2023-05-10T06:18:41.846Z,14.53
2023-05-10T06:19:42.009Z,14.50
2023-05-10T06:20:42.211Z,14.47
2023-05-10T06:21:42.394Z,14.47
2023-05-10T06:22:42.573Z,14.50
2023-05-10T06:23:42.804Z,14.45
2023-05-10T06:24:42.964Z,14.47
2023-05-10T06:25:43.163Z,14.43
2023-05-10T06:26:43.364Z,14.44
2023-05-10T06:27:43.859Z,14.48
2023-05-10T06:28:43.754Z,14.55
2023-05-10T06:29:43.911Z,14.54
2023-05-10T06:30:44.099Z,14.59
2023-05-10T06:31:44.324Z,14.59
2023-05-10T06:32:44.519Z,14.59
2023-05-10T06:33:44.684Z,14.55
2023-05-10T06:34:44.846Z,14.50
2023-05-10T06:35:45.038Z,14.51
2023-05-10T06:36:45.239Z,14.53
2023-05-10T06:37:45.399Z,14.54
2023-05-10T06:38:45.601Z,14.54
2023-05-10T06:39:45.773Z,14.60
2023-05-10T06:40:45.984Z,14.55
2023-05-10T06:41:46.131Z,14.59
2023-05-10T06:42:46.325Z,14.62
2023-05-10T06:43:46.594Z,14.72
2023-05-10T06:44:46.710Z,14.78
2023-05-10T06:45:46.868Z,14.79
2023-05-10T06:46:47.156Z,14.78
2023-05-10T06:47:47.327Z,14.84
2023-05-10T06:48:47.456Z,14.78
2023-05-10T06:49:47.594Z,14.73
2023-05-10T06:50:47.781Z,14.77
2023-05-10T06:51:47.992Z,14.81
2023-05-10T06:52:48.177Z,14.81
2023-05-10T06:53:48.401Z,14.77
2023-05-10T06:54:48.544Z,14.72
2023-05-10T06:55:48.724Z,14.73
2023-05-10T06:56:48.917Z,14.79
2023-05-10T06:57:49.103Z,14.85
2023-05-10T06:58:49.352Z,14.79
2023-05-10T06:59:49.491Z,14.81
2023-05-10T07:00:49.667Z,14.84
2023-05-10T07:01:49.890Z,14.84
2023-05-10T07:02:50.055Z,14.84
2023-05-10T07:03:50.195Z,14.84
2023-05-10T07:04:50.378Z,14.91
2023-05-10T07:05:50.526Z,14.86
2023-05-10T07:06:50.776Z,14.85
2023-05-10T07:07:50.904Z,14.89
2023-05-10T07:08:51.129Z,14.89
2023-05-10T07:09:51.314Z,14.91
2023-05-10T07:10:51.473Z,14.91
2023-05-10T07:11:51.654Z,14.94
2023-05-10T07:12:51.903Z,15.02
2023-05-10T07:13:52.034Z,15.07
2023-05-10T07:14:52.191Z,15.17
2023-05-10T07:15:52.397Z,15.17
2023-05-10T07:16:52.707Z,15.19
2023-05-10T07:17:52.858Z,15.18
2023-05-10T07:18:52.959Z,15.21
2023-05-10T07:19:53.128Z,15.21
2023-05-10T07:20:53.413Z,15.27
2023-05-10T07:21:53.464Z,15.29
2023-05-10T07:22:53.629Z,15.18
2023-05-10T07:23:53.836Z,15.19
2023-05-10T07:24:53.966Z,15.18
2023-05-10T07:25:54.177Z,15.17
2023-05-10T07:26:54.340Z,15.18
2023-05-10T07:27:54.502Z,15.15
2023-05-10T07:28:54.721Z,15.17
2023-05-10T07:29:54.883Z,15.14
2023-05-10T07:30:55.121Z,15.09
2023-05-10T07:31:57.888Z,15.11
2023-05-10T07:32:55.466Z,15.10
2023-05-10T07:33:55.669Z,15.14
2023-05-10T07:34:55.789Z,15.09
2023-05-10T07:35:56.001Z,14.97
2023-05-10T07:36:56.166Z,14.88
2023-05-10T07:37:56.325Z,14.82
2023-05-10T07:38:56.527Z,14.82
2023-05-10T07:39:56.669Z,14.85
2023-05-10T07:40:56.870Z,14.85
2023-05-10T07:41:57.063Z,14.85
2023-05-10T07:42:57.236Z,14.81
2023-05-10T07:43:57.459Z,14.79
2023-05-10T07:44:57.598Z,14.73
2023-05-10T07:45:57.825Z,14.59
2023-05-10T07:46:57.975Z,14.55
2023-05-10T07:47:58.157Z,14.53
2023-05-10T07:48:58.344Z,14.44
2023-05-10T07:49:58.545Z,14.47
2023-05-10T07:50:58.724Z,14.44
2023-05-10T07:51:58.925Z,14.44
2023-05-10T07:52:59.104Z,14.44
2023-05-10T07:53:59.304Z,14.37
2023-05-10T07:54:59.478Z,14.35
2023-05-10T07:55:59.675Z,14.35
2023-05-10T07:56:59.832Z,14.36
2023-05-10T07:58:00.011Z,14.29
2023-05-10T07:59:00.249Z,14.28
2023-05-10T08:00:00.388Z,14.29
2023-05-10T08:01:00.568Z,14.28
2023-05-10T08:02:00.787Z,14.29
2023-05-10T08:03:01.183Z,14.33
2023-05-10T08:04:01.318Z,14.29
2023-05-10T08:05:01.323Z,14.12
2023-05-10T08:06:01.528Z,14.15
2023-05-10T08:07:01.697Z,14.25
2023-05-10T08:08:01.845Z,14.22
2023-05-10T08:09:02.081Z,13.99
2023-05-10T08:10:02.228Z,13.86
2023-05-10T08:11:02.414Z,13.85
2023-05-10T08:12:02.622Z,13.89
2023-05-10T08:13:02.798Z,13.96
2023-05-10T08:14:03.016Z,13.93
2023-05-10T08:15:03.192Z,13.86
2023-05-10T08:16:03.352Z,13.89
2023-05-10T08:17:03.651Z,13.81
2023-05-10T08:18:03.741Z,13.77
2023-05-10T08:19:03.974Z,13.83
2023-05-10T08:20:04.045Z,13.92
2023-05-10T08:21:04.204Z,13.90
2023-05-10T08:22:04.408Z,13.92
2023-05-10T08:23:04.580Z,13.95
2023-05-10T08:24:04.805Z,13.99
2023-05-10T08:25:04.935Z,14.00
2023-05-10T08:26:05.132Z,13.93
2023-05-10T08:27:05.334Z,13.96
2023-05-10T08:28:05.526Z,14.05
2023-05-10T08:29:05.743Z,14.15
2023-05-10T08:30:05.887Z,14.20
2023-05-10T08:31:06.213Z,14.20
2023-05-10T08:32:06.260Z,14.20
2023-05-10T08:33:06.499Z,14.29
2023-05-10T08:34:06.662Z,14.17
2023-05-10T08:35:06.813Z,14.11
2023-05-10T08:36:07.034Z,14.08
2023-05-10T08:37:07.167Z,14.11
2023-05-10T08:38:07.350Z,14.14
2023-05-10T08:39:13.575Z,14.17
2023-05-10T08:40:07.767Z,14.15
2023-05-10T08:41:07.926Z,14.11
2023-05-10T08:42:08.121Z,14.12
2023-05-10T08:43:08.366Z,14.07
2023-05-10T08:44:08.504Z,14.08
2023-05-10T08:45:08.659Z,14.04
2023-05-10T08:46:08.896Z,13.89
2023-05-10T08:47:09.094Z,13.85
2023-05-10T08:48:09.269Z,13.85
2023-05-10T08:49:09.394Z,13.74
2023-05-10T08:50:09.607Z,13.63
2023-05-10T08:51:09.759Z,13.67
2023-05-10T08:52:09.917Z,13.68
2023-05-10T08:53:10.110Z,13.46
2023-05-10T08:54:10.314Z,13.42
2023-05-10T08:55:10.477Z,13.30
2023-05-10T08:56:10.668Z,13.27
2023-05-10T08:57:10.875Z,13.22
2023-05-10T08:58:11.076Z,13.11
2023-05-10T08:59:11.298Z,13.05
2023-05-10T09:00:11.448Z,13.11
2023-05-10T09:01:11.653Z,13.05
2023-05-10T09:02:11.770Z,13.00
2023-05-10T09:03:12.052Z,13.00
2023-05-10T09:04:12.260Z,13.08
2023-05-10T09:05:12.375Z,13.09
2023-05-10T09:06:12.515Z,13.18
2023-05-10T09:07:12.670Z,13.22
2023-05-10T09:08:12.860Z,13.22
2023-05-10T09:09:13.074Z,13.23
2023-05-10T09:10:13.222Z,13.19
2023-05-10T09:11:13.413Z,13.13
2023-05-10T09:12:13.610Z,13.15
2023-05-10T09:13:13.765Z,13.12
2023-05-10T09:14:13.971Z,13.13
2023-05-10T09:15:14.270Z,13.12
2023-05-10T09:17:14.532Z,12.97
2023-05-10T09:18:14.741Z,12.91
2023-05-10T09:19:14.889Z,12.86
2023-05-10T09:20:15.012Z,12.78
2023-05-10T09:21:15.294Z,12.76
2023-05-10T09:22:15.401Z,12.70
2023-05-10T09:23:15.588Z,12.61
2023-05-10T09:24:15.795Z,12.57
2023-05-10T09:25:16.170Z,12.60
2023-05-10T09:26:16.119Z,12.54
2023-05-10T09:27:16.324Z,12.50
2023-05-10T09:28:16.506Z,12.42
2023-05-10T09:29:17.515Z,12.28
2023-05-10T09:30:16.865Z,12.25
2023-05-10T09:31:17.062Z,12.13
2023-05-10T09:32:17.192Z,12.12
2023-05-10T09:33:17.368Z,12.12
2023-05-10T09:34:17.575Z,12.13
2023-05-10T09:35:18.014Z,12.18
2023-05-10T09:36:17.968Z,12.13
2023-05-10T09:37:18.120Z,12.12
2023-05-10T09:38:18.297Z,12.10
2023-05-10T09:39:18.508Z,12.18
2023-05-10T09:40:18.693Z,12.20
2023-05-10T09:41:18.861Z,12.18
2023-05-10T09:42:19.057Z,12.20
2023-05-10T09:43:19.244Z,12.27
2023-05-10T09:44:19.445Z,12.24
2023-05-10T09:45:19.621Z,12.20
2023-05-10T09:46:19.854Z,12.07
2023-05-10T09:47:20.019Z,12.03
2023-05-10T09:48:20.129Z,12.10
2023-05-10T09:49:20.403Z,12.10
2023-05-10T09:50:20.532Z,12.13
2023-05-10T09:51:20.710Z,12.04
2023-05-10T09:52:20.927Z,12.09
2023-05-10T09:53:21.071Z,12.12
2023-05-10T09:54:21.276Z,12.03
2023-05-10T09:55:21.454Z,12.07
2023-05-10T09:56:21.625Z,12.09
2023-05-10T09:57:21.783Z,12.13
2023-05-10T09:58:21.997Z,12.13
2023-05-10T09:59:22.212Z,12.09
2023-05-10T10:00:22.363Z,12.22
2023-05-10T10:01:22.545Z,12.22
2023-05-10T10:02:22.743Z,12.22
2023-05-10T10:03:22.862Z,12.25
2023-05-10T10:04:23.101Z,12.22
2023-05-10T10:05:23.223Z,12.15
2023-05-10T10:06:30.159Z,12.12
2023-05-10T10:07:23.620Z,12.09
2023-05-10T10:08:23.776Z,12.07
2023-05-10T10:09:24.006Z,12.10
2023-05-10T10:10:24.173Z,12.09
2023-05-10T10:11:24.357Z,12.13
2023-05-10T10:12:24.550Z,12.15
2023-05-10T10:13:24.773Z,12.09
2023-05-10T10:14:24.951Z,12.10
2023-05-10T10:15:25.246Z,12.22
2023-05-10T10:16:25.330Z,12.25
2023-05-10T10:17:25.483Z,12.27
2023-05-10T10:18:25.686Z,12.35
2023-05-10T10:19:25.857Z,12.35
2023-05-10T10:20:26.029Z,12.36
2023-05-10T10:21:26.204Z,12.40
2023-05-10T10:22:26.389Z,12.43
2023-05-10T10:23:26.644Z,12.36
2023-05-10T10:24:26.780Z,12.40
2023-05-10T10:25:26.920Z,12.37
2023-05-10T10:26:27.127Z,12.39
2023-05-10T10:27:27.289Z,12.35
2023-05-10T10:28:28.353Z,12.39
2023-05-10T10:29:27.693Z,12.35
2023-05-10T10:30:27.872Z,12.42
2023-05-10T10:31:28.129Z,12.40
2023-05-10T10:32:28.293Z,12.42
2023-05-10T10:33:29.221Z,12.42
2023-05-10T10:34:28.659Z,12.39
2023-05-10T10:35:28.796Z,12.39
2023-05-10T10:36:29.025Z,12.49
2023-05-10T10:37:29.148Z,12.45
2023-05-10T10:38:29.375Z,12.46
2023-05-10T10:39:29.541Z,12.47
2023-05-10T10:40:31.326Z,12.49
2023-05-10T10:41:29.888Z,12.54
2023-05-10T10:42:30.071Z,12.50
2023-05-10T10:43:30.261Z,12.55
2023-05-10T10:44:30.458Z,12.58
2023-05-10T10:45:30.623Z,12.54
2023-05-10T10:46:30.808Z,12.55
2023-05-10T10:47:31.195Z,12.50
2023-05-10T10:48:31.128Z,12.49
2023-05-10T10:49:31.382Z,12.42
2023-05-10T10:50:31.514Z,12.47
2023-05-10T10:51:31.699Z,12.54
2023-05-10T10:52:31.911Z,12.49
2023-05-10T10:53:32.155Z,12.53
2023-05-10T10:54:32.291Z,12.53
2023-05-10T10:55:32.476Z,12.53
2023-05-10T10:56:32.604Z,12.54
2023-05-10T10:57:32.809Z,12.54
2023-05-10T10:58:32.970Z,12.54
2023-05-10T10:59:33.215Z,12.58
2023-05-10T11:00:33.331Z,12.65
2023-05-10T11:01:33.600Z,12.76
2023-05-10T11:02:33.760Z,12.80
2023-05-10T11:03:33.870Z,12.87
2023-05-10T11:04:34.152Z,12.80
2023-05-10T11:05:34.253Z,12.90
2023-05-10T11:06:34.535Z,12.82
2023-05-10T11:07:34.619Z,12.87
2023-05-10T11:08:36.930Z,12.79
2023-05-10T11:09:35.043Z,12.85
2023-05-10T11:10:35.171Z,12.98
2023-05-10T11:11:35.340Z,13.05
2023-05-10T11:12:35.508Z,13.23
2023-05-10T11:13:35.701Z,13.30
2023-05-10T11:14:35.861Z,13.46
2023-05-10T11:15:36.036Z,13.42
2023-05-10T11:16:36.299Z,13.47
2023-05-10T11:17:36.444Z,13.54
2023-05-10T11:18:36.588Z,13.49
2023-05-10T11:19:36.780Z,13.49
2023-05-10T11:20:36.960Z,13.35
2023-05-10T11:21:37.205Z,13.37
2023-05-10T11:22:37.352Z,13.46
2023-05-10T11:23:37.546Z,13.54
2023-05-10T11:24:37.700Z,13.50
2023-05-10T11:25:37.885Z,13.50
2023-05-10T11:26:38.048Z,13.52
2023-05-10T11:27:38.221Z,13.53
2023-05-10T11:28:38.401Z,13.50
2023-05-10T11:29:38.602Z,13.53
2023-05-10T11:30:38.837Z,13.57
2023-05-10T11:31:39.010Z,13.52
2023-05-10T11:32:39.178Z,13.50
2023-05-10T11:33:39.329Z,13.44
2023-05-10T11:34:39.540Z,13.53
2023-05-10T11:35:41.064Z,13.49
2023-05-10T11:36:39.890Z,13.60
2023-05-10T11:37:40.041Z,13.49
2023-05-10T11:38:40.213Z,13.52
2023-05-10T11:39:40.419Z,13.54
2023-05-10T11:40:40.570Z,13.59
2023-05-10T11:41:41.628Z,13.63
2023-05-10T11:42:40.936Z,13.71
2023-05-10T11:43:41.148Z,13.81
2023-05-10T11:44:41.304Z,13.85
2023-05-10T11:45:41.478Z,13.79
2023-05-10T11:46:41.738Z,13.89
2023-05-10T11:47:42.914Z,13.85
2023-05-10T11:48:42.062Z,13.83
2023-05-10T11:49:42.235Z,13.99
2023-05-10T11:50:42.415Z,14.11
2023-05-10T11:51:42.586Z,14.05
2023-05-10T11:52:42.863Z,14.20
2023-05-10T11:53:42.946Z,14.20
2023-05-10T11:54:43.176Z,14.14
2023-05-10T11:55:43.346Z,14.10
2023-05-10T11:56:43.502Z,14.17
2023-05-10T11:57:43.689Z,14.20
2023-05-10T11:58:43.880Z,14.29
2023-05-10T11:59:44.119Z,14.28
2023-05-10T12:00:44.259Z,14.15
2023-05-10T12:01:44.436Z,14.15
2023-05-10T12:02:44.696Z,14.12
2023-05-10T12:03:44.917Z,14.23
2023-05-10T12:04:45.070Z,14.11
2023-05-10T12:05:45.185Z,14.17
2023-05-10T12:06:45.408Z,14.30
2023-05-10T12:07:45.559Z,14.45
2023-05-10T12:08:45.743Z,14.53
2023-05-10T12:09:45.928Z,14.53
2023-05-10T12:10:46.113Z,14.51
2023-05-10T12:11:46.302Z,14.58
2023-05-10T12:12:46.489Z,14.48
2023-05-10T12:13:46.682Z,14.48
2023-05-10T12:14:46.864Z,14.59
2023-05-10T12:15:47.058Z,14.70
2023-05-10T12:16:47.377Z,14.65
2023-05-10T12:17:47.471Z,14.63
2023-05-10T12:18:47.592Z,14.62
2023-05-10T12:19:47.817Z,14.77
2023-05-10T12:20:48.021Z,14.72
2023-05-10T12:21:48.207Z,14.73
2023-05-10T12:22:48.417Z,14.86
2023-05-10T12:23:48.582Z,14.91
2023-05-10T12:24:48.817Z,14.88
2023-05-10T12:25:48.986Z,15.00
2023-05-10T12:26:49.148Z,15.04
2023-05-10T12:27:49.362Z,15.06
2023-05-10T12:28:49.588Z,15.19
2023-05-10T12:29:49.787Z,15.19
2023-05-10T12:30:49.972Z,15.35
2023-05-10T12:31:50.229Z,15.25
2023-05-10T12:32:50.426Z,15.22
2023-05-10T12:33:50.613Z,15.14
2023-05-10T12:34:50.771Z,15.14
2023-05-10T12:35:50.959Z,15.24
2023-05-10T12:36:51.177Z,15.37
2023-05-10T12:37:51.410Z,15.57
2023-05-10T12:38:51.580Z,15.54
2023-05-10T12:39:51.806Z,15.44
2023-05-10T12:40:52.051Z,15.57
2023-05-10T12:41:52.216Z,15.64
2023-05-10T12:42:52.474Z,15.64
2023-05-10T12:43:52.638Z,15.72
2023-05-10T12:44:52.839Z,15.70
2023-05-10T12:45:53.037Z,15.33
2023-05-10T12:46:53.197Z,15.35
2023-05-10T12:47:53.408Z,15.22
2023-05-10T12:49:03.205Z,15.24
2023-05-10T12:49:53.826Z,15.22
2023-05-10T12:50:54.016Z,15.22
2023-05-10T12:51:54.367Z,15.17
2023-05-10T12:52:54.378Z,15.19
2023-05-10T12:53:54.586Z,15.35
2023-05-10T12:54:54.825Z,15.39
2023-05-10T12:55:55.026Z,15.51